createdAt,value
2018-07-05T00:02:38.319Z,66.80
2018-07-05T00:05:17.919Z,66.90
2018-07-05T00:07:57.760Z,66.90
2018-07-05T00:10:37.424Z,67.00
2018-07-05T00:13:17.283Z,66.80
2018-07-05T00:15:56.879Z,67.00
2018-07-05T00:21:04.136Z,66.90
2018-07-05T00:23:43.759Z,67.10
2018-07-05T00:26:23.459Z,67.20
2018-07-05T00:29:03.164Z,67.10
2018-07-05T00:31:42.832Z,67.20
2018-07-05T00:34:22.572Z,67.10
2018-07-05T00:37:02.084Z,66.90
2018-07-05T00:39:41.820Z,67.00
2018-07-05T00:42:21.500Z,67.00
2018-07-05T00:45:01.057Z,67.10
2018-07-05T00:47:40.809Z,67.20
2018-07-05T00:50:20.644Z,67.80
2018-07-05T00:53:00.399Z,67.90
2018-07-05T00:55:40.007Z,68.10
2018-07-05T00:58:19.701Z,68.10
2018-07-05T01:00:59.328Z,68.30
2018-07-05T01:03:38.969Z,68.50
2018-07-05T01:06:18.699Z,68.60
2018-07-05T01:08:58.294Z,68.70
2018-07-05T01:11:37.930Z,68.80
2018-07-05T01:14:17.647Z,68.90
2018-07-05T01:16:57.456Z,68.80
2018-07-05T01:19:37.317Z,68.90
2018-07-05T01:22:17.116Z,69.10
2018-07-05T01:24:56.683Z,68.90
2018-07-05T01:27:37.344Z,68.60
2018-07-05T01:30:18.396Z,68.50
2018-07-05T01:32:58.197Z,68.50
2018-07-05T01:35:38.578Z,68.50
2018-07-05T01:40:52.180Z,69.00
2018-07-05T01:43:31.789Z,69.20
2018-07-05T01:46:11.533Z,69.10
2018-07-05T01:48:51.213Z,68.70
2018-07-05T01:51:30.704Z,68.20
2018-07-05T01:56:44.025Z,67.60
2018-07-05T01:59:23.797Z,67.60
2018-07-05T02:02:03.394Z,67.70
2018-07-05T02:04:43.209Z,68.00
2018-07-05T02:07:22.952Z,68.20
2018-07-05T02:10:02.770Z,68.70
2018-07-05T02:12:42.314Z,69.00
2018-07-05T02:15:22.023Z,69.60
2018-07-05T02:18:01.685Z,69.50
2018-07-05T02:20:41.504Z,69.60
2018-07-05T02:23:21.287Z,69.70
2018-07-05T02:26:00.904Z,70.20
2018-07-05T02:28:40.685Z,70.30
2018-07-05T02:31:20.318Z,70.40
2018-07-05T02:34:04.395Z,70.60
2018-07-05T02:36:43.945Z,70.90
2018-07-05T02:39:29.054Z,71.60
2018-07-05T02:42:08.537Z,71.50
2018-07-05T02:44:48.376Z,71.10
2018-07-05T02:47:27.936Z,71.20
2018-07-05T02:50:07.593Z,71.10
2018-07-05T02:52:47.190Z,71.00
2018-07-05T02:55:26.838Z,71.00
2018-07-05T02:58:06.872Z,71.20
2018-07-05T03:00:46.918Z,71.60
2018-07-05T03:03:28.179Z,71.90
2018-07-05T03:06:07.770Z,71.40
2018-07-05T03:11:21.617Z,71.50
2018-07-05T03:14:01.204Z,71.90
2018-07-05T03:16:40.920Z,71.80
2018-07-05T03:21:54.714Z,70.50
2018-07-05T03:24:34.381Z,70.30
2018-07-05T03:27:14.283Z,70.30
2018-07-05T03:29:53.906Z,70.60
2018-07-05T03:32:33.603Z,70.80
2018-07-05T03:35:13.011Z,70.90
2018-07-05T03:37:52.726Z,70.90
2018-07-05T03:40:32.472Z,71.20
2018-07-05T03:43:12.284Z,71.20
2018-07-05T03:45:51.958Z,71.20
2018-07-05T03:48:31.968Z,71.50
2018-07-05T03:51:11.861Z,71.70
2018-07-05T03:53:51.719Z,71.50
2018-07-05T03:56:31.279Z,71.50
2018-07-05T03:59:10.992Z,71.60
2018-07-05T04:01:50.506Z,71.60
2018-07-05T04:04:30.319Z,71.60
2018-07-05T04:07:09.981Z,71.80
2018-07-05T04:09:49.857Z,71.70
2018-07-05T04:12:29.700Z,71.80
2018-07-05T04:15:09.381Z,72.00
2018-07-05T04:17:48.875Z,72.10
2018-07-05T04:20:28.578Z,72.20
2018-07-05T04:25:41.887Z,71.80
2018-07-05T04:28:21.761Z,71.60
2018-07-05T04:31:01.562Z,71.80
2018-07-05T04:33:41.070Z,71.80
2018-07-05T04:36:20.930Z,72.00
2018-07-05T04:39:00.692Z,71.90
2018-07-05T04:41:40.256Z,71.90
2018-07-05T04:44:20.025Z,71.90
2018-07-05T04:46:59.767Z,71.70
2018-07-05T04:49:39.635Z,71.50
2018-07-05T04:52:19.350Z,71.50
2018-07-05T04:54:59.110Z,71.70
2018-07-05T04:57:38.803Z,71.80
2018-07-05T05:00:18.548Z,71.90
2018-07-05T05:02:58.276Z,72.00
2018-07-05T05:05:38.196Z,72.00
2018-07-05T05:08:17.900Z,72.00
2018-07-05T05:13:31.106Z,72.20
2018-07-05T05:16:10.786Z,72.30
2018-07-05T05:18:50.671Z,72.20
2018-07-05T05:21:30.288Z,72.40
2018-07-05T05:24:10.024Z,72.30
2018-07-05T05:26:49.842Z,72.00
2018-07-05T05:29:29.478Z,72.00
2018-07-05T05:32:09.160Z,71.90
2018-07-05T05:34:49.088Z,71.60
2018-07-05T05:37:28.822Z,71.50
2018-07-05T05:40:08.696Z,71.40
2018-07-05T05:42:48.321Z,71.10
2018-07-05T05:45:28.148Z,71.00
2018-07-05T05:48:07.918Z,70.90
2018-07-05T05:50:47.637Z,70.80
2018-07-05T05:53:27.175Z,70.50
2018-07-05T05:56:06.964Z,70.40
2018-07-05T05:58:46.749Z,70.30
2018-07-05T06:01:26.572Z,70.20
2018-07-05T06:04:06.176Z,70.20
2018-07-05T06:06:46.035Z,70.30
2018-07-05T06:09:25.851Z,70.40
2018-07-05T06:12:05.600Z,70.30
2018-07-05T06:14:45.407Z,70.20
2018-07-05T06:17:25.152Z,70.50
2018-07-05T06:20:04.795Z,70.20
2018-07-05T06:22:44.663Z,70.00
2018-07-05T06:25:24.471Z,70.00
2018-07-05T06:28:04.185Z,70.10
2018-07-05T06:30:43.895Z,69.70
2018-07-05T06:33:23.819Z,69.50
2018-07-05T06:36:03.487Z,69.50
2018-07-05T06:38:43.314Z,69.40
2018-07-05T06:41:23.039Z,69.50
2018-07-05T06:46:36.236Z,68.90
2018-07-05T06:49:15.957Z,69.10
2018-07-05T06:51:55.359Z,69.20
2018-07-05T06:54:35.015Z,68.70
2018-07-05T06:57:14.735Z,68.40
2018-07-05T06:59:54.334Z,68.20
2018-07-05T07:02:33.918Z,68.10
2018-07-05T07:07:47.336Z,68.00
2018-07-05T07:10:27.042Z,68.20
2018-07-05T07:13:06.891Z,67.90
2018-07-05T07:15:46.777Z,67.90
2018-07-05T07:18:26.566Z,67.60
2018-07-05T07:21:06.425Z,68.00
2018-07-05T07:23:46.062Z,67.90
2018-07-05T07:26:25.709Z,67.60
2018-07-05T07:29:05.452Z,67.70
2018-07-05T07:31:45.174Z,67.50
2018-07-05T07:34:24.983Z,67.10
2018-07-05T07:37:04.703Z,67.20
2018-07-05T07:39:44.414Z,66.80
2018-07-05T07:42:11.657Z,66.70
2018-07-05T07:44:38.905Z,66.50
2018-07-05T07:47:06.139Z,66.10
2018-07-05T07:49:33.429Z,66.10
2018-07-05T07:52:01.762Z,66.10
2018-07-05T07:54:28.967Z,65.90
2018-07-05T07:56:56.211Z,65.80
2018-07-05T07:59:23.401Z,65.90
2018-07-05T08:01:50.620Z,65.80
2018-07-05T08:04:17.849Z,65.70
2018-07-05T08:06:45.069Z,65.40
2018-07-05T08:09:12.284Z,65.60
2018-07-05T08:11:39.555Z,65.20
2018-07-05T08:14:07.142Z,64.70
2018-07-05T08:16:34.353Z,64.50
2018-07-05T08:19:01.583Z,64.60
2018-07-05T08:21:28.812Z,64.70
2018-07-05T08:23:56.279Z,64.60
2018-07-05T08:26:23.532Z,64.50
2018-07-05T08:28:50.752Z,64.50
2018-07-05T08:31:17.988Z,64.50
2018-07-05T08:33:45.657Z,65.00
2018-07-05T08:36:12.939Z,65.00
2018-07-05T08:38:40.171Z,64.90
2018-07-05T08:41:07.384Z,64.60
2018-07-05T08:43:34.666Z,64.40
2018-07-05T08:46:01.883Z,64.40
2018-07-05T08:48:29.189Z,64.40
2018-07-05T08:50:56.412Z,64.30
2018-07-05T08:53:23.671Z,64.30
2018-07-05T08:55:50.931Z,64.40
2018-07-05T08:58:18.201Z,64.30
2018-07-05T09:00:45.429Z,64.70
2018-07-05T09:03:12.648Z,64.10
2018-07-05T09:05:39.902Z,64.00
2018-07-05T09:08:07.111Z,64.30
2018-07-05T09:10:34.328Z,64.60
2018-07-05T09:13:01.640Z,65.20
2018-07-05T09:15:28.849Z,65.30
2018-07-05T09:17:56.250Z,65.30
2018-07-05T09:20:23.316Z,65.30
2018-07-05T09:22:50.526Z,65.40
2018-07-05T09:25:17.809Z,65.90
2018-07-05T09:27:45.032Z,66.10
2018-07-05T09:30:12.378Z,65.90
2018-07-05T09:32:39.885Z,65.80
2018-07-05T09:35:07.366Z,66.20
2018-07-05T09:37:34.696Z,66.10
2018-07-05T09:40:01.895Z,65.80
2018-07-05T09:42:29.144Z,65.60
2018-07-05T09:44:56.352Z,64.70
2018-07-05T09:47:23.604Z,64.50
2018-07-05T09:49:50.856Z,64.30
2018-07-05T09:52:18.136Z,64.30
2018-07-05T09:54:45.382Z,63.30
2018-07-05T09:57:12.593Z,62.90
2018-07-05T09:59:39.807Z,62.70
2018-07-05T10:02:07.423Z,61.50
2018-07-05T10:04:34.683Z,61.10
2018-07-05T10:07:02.032Z,60.80
2018-07-05T10:09:29.252Z,60.70
2018-07-05T10:11:56.475Z,59.90
2018-07-05T10:14:24.207Z,60.00
2018-07-05T10:16:51.396Z,60.40
2018-07-05T10:19:18.681Z,60.60
2018-07-05T10:21:46.121Z,60.70
2018-07-05T10:24:13.368Z,60.60
2018-07-05T10:26:40.728Z,60.70
2018-07-05T10:29:20.577Z,59.50
2018-07-05T10:32:00.323Z,59.50
2018-07-05T10:34:27.533Z,58.70
2018-07-05T10:36:54.789Z,58.80
2018-07-05T10:39:22.028Z,59.30
2018-07-05T10:42:01.677Z,58.90
2018-07-05T10:44:41.386Z,59.60
2018-07-05T10:47:21.192Z,59.30
2018-07-05T10:50:00.821Z,59.00
2018-07-05T10:52:40.531Z,59.00
2018-07-05T10:55:20.264Z,59.00
2018-07-05T10:58:00.124Z,59.40
2018-07-05T11:00:39.634Z,59.70
2018-07-05T11:03:19.285Z,59.60
2018-07-05T11:05:58.965Z,58.90
2018-07-05T11:08:38.740Z,58.80
2018-07-05T11:11:18.349Z,57.90
2018-07-05T11:13:58.043Z,58.40
2018-07-05T11:16:37.839Z,58.60
2018-07-05T11:19:17.685Z,58.00
2018-07-05T11:21:57.356Z,57.10
2018-07-05T11:24:37.199Z,57.70
2018-07-05T11:27:16.773Z,57.80
2018-07-05T11:29:56.730Z,58.10
2018-07-05T11:32:36.255Z,59.10
2018-07-05T11:35:16.031Z,59.00
2018-07-05T11:37:55.448Z,60.10
2018-07-05T11:40:35.080Z,61.20
2018-07-05T11:43:14.728Z,62.20
2018-07-05T11:45:54.538Z,62.00
2018-07-05T11:48:34.036Z,62.30
2018-07-05T11:51:13.569Z,61.90
2018-07-05T11:53:53.142Z,61.30
2018-07-05T11:56:32.945Z,61.80
2018-07-05T11:59:12.560Z,61.60
2018-07-05T12:01:52.184Z,60.60
2018-07-05T12:04:31.715Z,59.90
2018-07-05T12:07:11.392Z,60.60
2018-07-05T12:09:51.088Z,59.90
2018-07-05T12:12:30.900Z,59.90
2018-07-05T12:15:10.628Z,58.10
2018-07-05T12:17:50.344Z,56.40
2018-07-05T12:20:30.219Z,57.20
2018-07-05T12:23:09.960Z,57.30
2018-07-05T12:25:49.716Z,56.70
2018-07-05T12:28:29.513Z,57.30
2018-07-05T12:31:09.287Z,58.80
2018-07-05T12:33:49.089Z,59.10
2018-07-05T12:36:28.850Z,59.30
2018-07-05T12:39:08.471Z,59.70
2018-07-05T12:41:48.172Z,60.60
2018-07-05T12:44:28.105Z,61.20
2018-07-05T12:47:07.638Z,61.40
2018-07-05T12:49:47.105Z,61.70
2018-07-05T12:52:26.899Z,62.10
2018-07-05T12:55:06.680Z,61.10
2018-07-05T12:57:46.382Z,59.90
2018-07-05T13:00:26.140Z,59.90
2018-07-05T13:03:05.769Z,60.10
2018-07-05T13:05:45.532Z,59.10
2018-07-05T13:08:25.332Z,59.20
2018-07-05T13:11:04.982Z,58.70
2018-07-05T13:13:44.714Z,57.60
2018-07-05T13:16:24.588Z,57.30
2018-07-05T13:19:05.004Z,58.20
2018-07-05T13:21:44.756Z,58.40
2018-07-05T13:24:24.609Z,58.10
2018-07-05T13:27:04.593Z,58.20
2018-07-05T13:29:44.594Z,58.50
2018-07-05T13:32:24.147Z,58.90
2018-07-05T13:35:03.580Z,59.50
2018-07-05T13:37:43.349Z,59.50
2018-07-05T13:40:23.004Z,59.30
2018-07-05T13:43:02.555Z,59.80
2018-07-05T13:45:42.691Z,59.90
2018-07-05T13:48:22.325Z,59.80
2018-07-05T13:51:01.964Z,59.90
2018-07-05T13:53:41.547Z,60.10
2018-07-05T13:56:21.051Z,60.20
2018-07-05T13:59:00.700Z,60.00
2018-07-05T14:01:40.251Z,59.90
2018-07-05T14:04:19.898Z,59.80
2018-07-05T14:06:59.744Z,59.60
2018-07-05T14:09:39.679Z,59.60
2018-07-05T14:12:19.330Z,59.60
2018-07-05T14:17:32.902Z,60.80
2018-07-05T14:20:12.693Z,61.00
2018-07-05T14:22:52.497Z,60.30
2018-07-05T14:25:32.271Z,60.20
2018-07-05T14:28:11.973Z,60.10
2018-07-05T14:30:51.864Z,60.30
2018-07-05T14:33:31.688Z,60.00
2018-07-05T14:36:11.397Z,60.10
2018-07-05T14:38:51.143Z,59.80
2018-07-05T14:41:30.985Z,60.10
2018-07-05T14:44:10.747Z,60.00
2018-07-05T14:46:50.379Z,59.70
2018-07-05T14:49:30.108Z,59.50
2018-07-05T14:52:09.938Z,59.80
2018-07-05T14:54:49.703Z,59.20
2018-07-05T14:57:29.499Z,59.30
2018-07-05T15:00:09.204Z,59.50
2018-07-05T15:02:49.002Z,59.70
2018-07-05T15:05:28.733Z,59.30
2018-07-05T15:08:08.533Z,59.40
2018-07-05T15:10:48.262Z,59.90
2018-07-05T15:13:27.842Z,59.70
2018-07-05T15:16:07.577Z,59.60
2018-07-05T15:18:47.369Z,58.70
2018-07-05T15:21:27.316Z,58.20
2018-07-05T15:24:07.023Z,58.10
2018-07-05T15:26:46.685Z,58.60
2018-07-05T15:29:26.219Z,58.70
2018-07-05T15:32:05.747Z,58.40
2018-07-05T15:34:45.331Z,58.70
2018-07-05T15:37:25.004Z,58.80
2018-07-05T15:40:04.687Z,58.70
2018-07-05T15:42:44.393Z,58.80
2018-07-05T15:45:24.104Z,59.50
2018-07-05T15:48:03.795Z,58.60
2018-07-05T15:50:43.655Z,58.30
2018-07-05T15:53:23.431Z,58.40
2018-07-05T15:56:03.222Z,58.70
2018-07-05T15:58:42.939Z,58.40
2018-07-05T16:01:22.648Z,57.80
2018-07-05T16:04:02.418Z,57.90
2018-07-05T16:06:42.661Z,58.00
2018-07-05T16:09:22.243Z,58.00
2018-07-05T16:14:35.744Z,58.50
2018-07-05T16:17:15.553Z,58.40
2018-07-05T16:19:55.228Z,58.40
2018-07-05T16:22:34.995Z,58.40
2018-07-05T16:25:14.534Z,58.60
2018-07-05T16:27:54.177Z,58.40
2018-07-05T16:30:33.865Z,58.50
2018-07-05T16:33:13.480Z,58.40
2018-07-05T16:35:53.166Z,58.20
2018-07-05T16:38:33.159Z,58.30
2018-07-05T16:41:13.064Z,58.30
2018-07-05T16:43:52.596Z,58.60
2018-07-05T16:46:32.311Z,58.60
2018-07-05T16:49:12.085Z,58.50
2018-07-05T16:51:51.780Z,58.50
2018-07-05T16:54:31.549Z,58.60
2018-07-05T16:57:11.180Z,58.30
2018-07-05T16:59:50.769Z,58.60
2018-07-05T17:02:30.475Z,58.70
2018-07-05T17:05:10.103Z,58.30
2018-07-05T17:07:49.806Z,58.00
2018-07-05T17:10:29.623Z,58.10
2018-07-05T17:13:09.474Z,57.80
2018-07-05T17:15:49.495Z,57.60
2018-07-05T17:18:29.291Z,57.60
2018-07-05T17:21:09.039Z,57.40
2018-07-05T17:28:55.849Z,56.70
2018-07-05T17:31:35.716Z,56.10
2018-07-05T17:34:15.374Z,55.90
2018-07-05T17:36:55.111Z,55.50
2018-07-05T17:39:34.899Z,55.60
2018-07-05T17:42:14.795Z,55.90
2018-07-05T17:44:54.738Z,55.90
2018-07-05T17:47:34.453Z,55.90
2018-07-05T17:50:14.133Z,56.00
2018-07-05T17:52:53.964Z,56.00
2018-07-05T17:55:33.639Z,56.00
2018-07-05T17:58:13.515Z,56.20
2018-07-05T18:00:53.222Z,56.20
2018-07-05T18:03:33.120Z,56.20
2018-07-05T18:06:12.793Z,56.20
2018-07-05T18:08:52.662Z,56.30
2018-07-05T18:11:32.306Z,56.40
2018-07-05T18:14:12.217Z,56.30
2018-07-05T18:16:51.891Z,56.40
2018-07-05T18:19:31.532Z,56.50
2018-07-05T18:22:11.386Z,56.50
2018-07-05T18:24:51.230Z,56.80
2018-07-05T18:27:30.848Z,56.60
2018-07-05T18:30:10.646Z,56.70
2018-07-05T18:32:50.384Z,56.70
2018-07-05T18:35:30.261Z,56.90
2018-07-05T18:38:10.027Z,57.00
2018-07-05T18:40:49.872Z,57.30
2018-07-05T18:43:29.606Z,57.70
2018-07-05T18:46:09.391Z,57.80
2018-07-05T18:48:49.200Z,58.30
2018-07-05T18:51:28.904Z,58.60
2018-07-05T18:54:08.765Z,58.90
2018-07-05T18:56:48.454Z,59.00
2018-07-05T18:59:28.040Z,59.20
2018-07-05T19:02:07.699Z,59.50
2018-07-05T19:04:47.550Z,59.50
2018-07-05T19:07:27.264Z,59.60
2018-07-05T19:10:06.881Z,59.80
2018-07-05T19:12:46.670Z,59.70
2018-07-05T19:15:26.427Z,59.80
2018-07-05T19:18:06.220Z,59.80
2018-07-05T19:20:45.915Z,59.80
2018-07-05T19:23:25.654Z,59.80
2018-07-05T19:26:05.448Z,59.80
2018-07-05T19:28:45.613Z,59.70
2018-07-05T19:31:25.181Z,59.70
2018-07-05T19:34:04.980Z,59.70
2018-07-05T19:36:44.760Z,59.70
2018-07-05T19:39:25.320Z,59.70
2018-07-05T19:42:05.105Z,59.90
2018-07-05T19:44:44.936Z,60.00
2018-07-05T19:47:24.708Z,59.90
2018-07-05T19:50:04.608Z,59.80
2018-07-05T19:52:44.333Z,59.70
2018-07-05T19:55:24.011Z,59.70
2018-07-05T19:58:04.592Z,59.80
2018-07-05T20:00:44.374Z,59.70
2018-07-05T20:03:24.125Z,59.80
2018-07-05T20:06:03.701Z,60.10
2018-07-05T20:08:43.323Z,60.10
2018-07-05T20:11:23.082Z,60.30
2018-07-05T20:14:02.660Z,60.50
2018-07-05T20:19:15.801Z,60.80
2018-07-05T20:21:55.469Z,60.90
2018-07-05T20:24:35.230Z,61.10
2018-07-05T20:27:14.942Z,61.00
2018-07-05T20:29:54.666Z,61.20
2018-07-05T20:32:34.623Z,61.30
2018-07-05T20:35:14.215Z,61.20
2018-07-05T20:37:53.919Z,61.50
2018-07-05T20:40:33.705Z,61.40
2018-07-05T20:43:13.478Z,61.40
2018-07-05T20:48:26.693Z,61.30
2018-07-05T20:51:06.228Z,61.40
2018-07-05T20:53:45.918Z,61.50
2018-07-05T20:56:25.658Z,61.70
2018-07-05T20:59:05.307Z,61.90
2018-07-05T21:01:45.076Z,62.00
2018-07-05T21:04:24.878Z,62.20
2018-07-05T21:07:04.544Z,62.50
2018-07-05T21:09:44.251Z,62.70
2018-07-05T21:12:24.023Z,62.90
2018-07-05T21:15:03.949Z,63.30
2018-07-05T21:20:17.315Z,64.00
2018-07-05T21:22:57.121Z,64.10
2018-07-05T21:25:37.260Z,64.30
2018-07-05T21:28:16.868Z,64.70
2018-07-05T21:30:56.652Z,65.00
2018-07-05T21:33:36.282Z,65.20
2018-07-05T21:36:15.891Z,65.50
2018-07-05T21:38:55.601Z,66.10
2018-07-05T21:41:36.166Z,66.10
2018-07-05T21:44:15.839Z,66.20
2018-07-05T21:46:55.633Z,66.30
2018-07-05T21:49:35.336Z,66.40
2018-07-05T21:52:15.146Z,66.50
2018-07-05T21:54:54.846Z,66.60
2018-07-05T21:57:34.683Z,66.70
2018-07-05T22:02:48.026Z,66.80
2018-07-05T22:05:27.693Z,67.00
2018-07-05T22:08:07.524Z,66.90
2018-07-05T22:10:47.199Z,67.20
2018-07-05T22:13:26.931Z,67.20
2018-07-05T22:16:06.801Z,67.20
2018-07-05T22:18:52.155Z,67.20
2018-07-05T22:21:31.937Z,67.20
2018-07-05T22:24:17.192Z,67.20
2018-07-05T22:26:56.995Z,67.10
2018-07-05T22:29:42.233Z,67.10
2018-07-05T22:32:21.869Z,67.10
2018-07-05T22:35:01.611Z,67.10
2018-07-05T22:37:41.159Z,67.10
2018-07-05T22:40:21.004Z,67.20
2018-07-05T22:43:00.513Z,67.30
2018-07-05T22:45:40.128Z,67.30
2018-07-05T22:48:19.756Z,67.30
2018-07-05T22:50:59.528Z,67.20
2018-07-05T22:53:39.365Z,67.30
2018-07-05T22:56:19.016Z,67.40
2018-07-05T22:58:58.887Z,67.60
2018-07-05T23:01:38.710Z,67.70
2018-07-05T23:04:18.636Z,67.80
2018-07-05T23:06:58.142Z,67.80
2018-07-05T23:09:37.915Z,67.90
2018-07-05T23:12:17.702Z,67.90
2018-07-05T23:14:57.420Z,68.00
2018-07-05T23:17:37.203Z,68.10
2018-07-05T23:20:16.828Z,68.30
2018-07-05T23:22:57.076Z,68.40
2018-07-05T23:25:36.884Z,68.40
2018-07-05T23:28:16.727Z,68.30
2018-07-05T23:30:56.339Z,68.30
2018-07-05T23:33:36.089Z,68.70
2018-07-05T23:36:15.671Z,68.70
2018-07-05T23:38:55.442Z,68.70
2018-07-05T23:41:35.214Z,68.60
2018-07-05T23:44:15.133Z,68.70
2018-07-05T23:46:54.986Z,68.80
2018-07-05T23:49:34.838Z,68.90
2018-07-05T23:52:14.670Z,68.90
2018-07-05T23:54:54.527Z,68.90
2018-07-05T23:57:34.479Z,68.90
